Terminal Aerodrome Forecast
Issued by NWS

Home | Current Version | Previous Version | Graphics & Text | Print | Product List | Glossary On
Versions: 1 2 3 4 5 6 7 8 9 10 11 12 13 14 15 16
000
FTUS43 KICT 291123
TAFCNU
TAF
KCNU 291123Z 2912/3012 35020G30KT P6SM BKN025
     FM292300 35015KT P6SM SCT035
     FM300100 35007KT P6SM SCT250=

USA.gov is the U.S. government's official web portal to all federal, state and local government web resources and services.